Hauptseite
METAR-TAF:

METAR-TAF

Flughäfen :

Leeuwarden, Niederlande

Militärflugplatz Leeuwarden

Breite: 53-13N, Länge: 005-46E, Höhe: 1 m

Beobachtung

Neuester Wetterbericht von vor 34 Minuten, um 10:55 UTC
Wind 8 kt aus Nord/Nordost, variierte zwischen Nord/Nordwest und Ost
Temperatur 11°C
Luftfeuchtigkeit 40%
Luftdruck 1033 hPa
Sichtweite 10 km oder mehr
Aufgelockert bewölkt in der Höhe von 36000 ft

METAR: EHLW 251055Z AUTO 03008KT 340V090 9999 SCT360 11/M02 Q1033 BLU

Zeit: 12:29 (11:29 UTC)

Prognose

Neuester Wetterbericht von vor 2 Stunden und 16 Minuten, um 09:13 UTC
Gültige Prognose vom 25 um 10 UTC bis 25 um 22 UTC
Wind 8 kt aus Nordost
Sichtweite 10 km oder mehr
keine Wolken unter 1500 m und keine Kumulonimbus oder Gewitterwolken

TAF: EHLW 250913Z 2510/2522 05008KT CAVOK

Wetterbeobachtungen und Prognosen von mehr als 4000 Flughäfen (METAR und TAF Bericht).

Die verfügbaren Stationen werden durch gelbe und rote Markierungen auf der Karte dargestellt.

Führen Sie die Maus auf sie, um den Namen der Station zu sehen.

Darauf klicken, um die Beobachtung von Wetterbeobachtungen und Prognosen zu sehen.

Um die Karte zu ändern : klicken Sie auf den grünen Tasten mit einem schwarzen Kreuz Zum Vergrößern, auf den grünen Button mit einem Gedankenstrich zu verkleinern, oder auf die grünen Pfeile für benachbarte Karten.


METAR-TAF: